^^

..:: Storico WU ::..




Lo storico viene creato da WUnderground con i dati che la stazione Meteomincio invia al loro server. L' aggiornamento viene fatto ogni 5 minuti circa, tuttavia possono esserci intervalli pił ampi a causa di errori, interruzioni di servizio o problemi nell' invio tramite FTP.


Storico stazione MeteoMincio
Giorno Sommario per Febbario 12, 2022 Unità:  Entrambi    Inglese   Metrico
Giorno Settimana Mese Anno
  Max: Min: Media:
Temperatura: 55.4 °F /  13.0 °C 33.8 °F /  1.0 °C 43.3 °F /  6.3 °C
Dew Point: 39.2 °F /  4.0 °C 24.8 °F /  -4.0 °C 32 °F /  -0 °C
Umidità: 94% 33% 69%
Velocità vento: 14.3mph /  23km/h - 4.6mph /  7.4km/h
Raffica: 19.9mph /  32km/h - -
Direzione- - East
Pressione: 30.5 in /  1033.2 hPa 30.4 in /  1027.7 hPa -
Precipitazioni: 0 in /  0.00 mm    
 
 
Tabulato Dati per Febbario 12, 2022
Ora Temperatura Dew Point Pressione Direzione Velocità vento Raffica Umidità Intensità pioggia (oraria) Info solare Situazione
00:04 39.2 °F /  4.0 °C 37.4 °F /  3.0 °C 30.4in /  1027.7hPa NE 1.2mph /  2km/h 2.5mph /  4km/h 90% 0in /  0.00mm 0.00 W/m2 unknown
00:09 39.2 °F /  4.0 °C 37.4 °F /  3.0 °C 30.4in /  1027.8hPa NE 1.9mph /  3km/h 2.5mph /  4km/h 90% 0in /  0.00mm 0.00 W/m2 unknown
00:14 39.2 °F /  4.0 °C 37.4 °F /  3.0 °C 30.4in /  1027.8hPa NE 1.9mph /  3km/h 2.5mph /  4km/h 90% 0in /  0.00mm 0.00 W/m2 unknown
00:19 39.2 °F /  4.0 °C 37.4 °F /  3.0 °C 30.4in /  1027.8hPa NE 1.9mph /  3km/h 2.5mph /  4km/h 90% 0in /  0.00mm 0.00 W/m2 unknown
00:24 39.2 °F /  4.0 °C 37.4 °F /  3.0 °C 30.4in /  1027.9hPa NE 1.9mph /  3km/h 2.5mph /  4km/h 90% 0in /  0.00mm 0.00 W/m2 unknown
00:29 39.2 °F /  4.0 °C 37.4 °F /  3.0 °C 30.4in /  1027.9hPa NE 1.9mph /  3km/h 2.5mph /  4km/h 91% 0in /  0.00mm 0.00 W/m2 unknown
00:34 39.2 °F /  4.0 °C 37.4 °F /  3.0 °C 30.4in /  1028.0hPa NE 2.5mph /  4km/h 3.7mph /  6km/h 91% 0in /  0.00mm 0.00 W/m2 unknown
00:39 39.2 °F /  4.0 °C 37.4 °F /  3.0 °C 30.4in /  1028.0hPa NE 2.5mph /  4km/h 3.7mph /  6km/h 91% 0in /  0.00mm 0.00 W/m2 unknown
00:44 39.2 °F /  4.0 °C 37.4 °F /  3.0 °C 30.4in /  1028.1hPa NE 2.5mph /  4km/h 3.7mph /  6km/h 91% 0in /  0.00mm 0.00 W/m2 unknown
00:49 39.2 °F /  4.0 °C 37.4 °F /  3.0 °C 30.4in /  1028.1hPa NE 2.5mph /  4km/h 3.7mph /  6km/h 91% 0in /  0.00mm 0.00 W/m2 unknown
00:54 39.2 °F /  4.0 °C 37.4 °F /  3.0 °C 30.4in /  1028.2hPa NE 2.5mph /  4km/h 3.7mph /  6km/h 91% 0in /  0.00mm 0.00 W/m2 unknown
00:59 39.2 °F /  4.0 °C 37.4 °F /  3.0 °C 30.4in /  1028.2hPa NE 1.9mph /  3km/h 3.7mph /  6km/h 91% 0in /  0.00mm 0.00 W/m2 unknown
01:04 39.2 °F /  4.0 °C 35.6 °F /  2.0 °C 30.4in /  1028.2hPa NE 1.2mph /  2km/h 3.1mph /  5km/h 91% 0in /  0.00mm 0.00 W/m2 unknown
01:09 39.2 °F /  4.0 °C 35.6 °F /  2.0 °C 30.4in /  1028.2hPa NE 2.5mph /  4km/h 3.7mph /  6km/h 91% 0in /  0.00mm 0.00 W/m2 unknown
01:14 39.2 °F /  4.0 °C 37.4 °F /  3.0 °C 30.4in /  1028.2hPa NE 1.9mph /  3km/h 3.7mph /  6km/h 91% 0in /  0.00mm 0.00 W/m2 unknown
01:19 39.2 °F /  4.0 °C 37.4 °F /  3.0 °C 30.4in /  1028.2hPa NE 1.9mph /  3km/h 3.7mph /  6km/h 91% 0in /  0.00mm 0.00 W/m2 unknown
01:24 39.2 °F /  4.0 °C 35.6 °F /  2.0 °C 30.4in /  1028.4hPa ENE 2.5mph /  4km/h 3.7mph /  6km/h 91% 0in /  0.00mm 0.00 W/m2 unknown
01:29 37.4 °F /  3.0 °C 35.6 °F /  2.0 °C 30.4in /  1028.6hPa East 3.1mph /  5km/h 3.7mph /  6km/h 91% 0in /  0.00mm 0.00 W/m2 unknown
01:34 37.4 °F /  3.0 °C 35.6 °F /  2.0 °C 30.4in /  1028.6hPa NE 1.9mph /  3km/h 3.7mph /  6km/h 92% 0in /  0.00mm 0.00 W/m2 unknown
01:39 37.4 °F /  3.0 °C 35.6 °F /  2.0 °C 30.4in /  1028.8hPa NE 2.5mph /  4km/h 3.7mph /  6km/h 92% 0in /  0.00mm 0.00 W/m2 unknown
01:44 37.4 °F /  3.0 °C 35.6 °F /  2.0 °C 30.4in /  1028.8hPa NE 1.9mph /  3km/h 3.7mph /  6km/h 93% 0in /  0.00mm 0.00 W/m2 unknown
01:49 37.4 °F /  3.0 °C 35.6 °F /  2.0 °C 30.4in /  1028.9hPa NNE 1.9mph /  3km/h 3.1mph /  5km/h 93% 0in /  0.00mm 0.00 W/m2 unknown
01:54 37.4 °F /  3.0 °C 37.4 °F /  3.0 °C 30.4in /  1029.0hPa NE 2.5mph /  4km/h 3.7mph /  6km/h 93% 0in /  0.00mm 0.00 W/m2 unknown
01:59 39.2 °F /  4.0 °C 37.4 °F /  3.0 °C 30.4in /  1029.1hPa ENE 3.7mph /  6km/h 3.7mph /  6km/h 93% 0in /  0.00mm 0.00 W/m2 unknown
02:04 39.2 °F /  4.0 °C 37.4 °F /  3.0 °C 30.4in /  1029.2hPa ENE 5mph /  8km/h 6.8mph /  11km/h 93% 0in /  0.00mm 0.00 W/m2 unknown
02:09 39.2 °F /  4.0 °C 37.4 °F /  3.0 °C 30.4in /  1029.2hPa ENE 5.6mph /  9km/h 8.1mph /  13km/h 92% 0in /  0.00mm 0.00 W/m2 unknown
02:14 41 °F /  5.0 °C 37.4 °F /  3.0 °C 30.4in /  1029.3hPa ENE 6.2mph /  10km/h 8.1mph /  13km/h 91% 0in /  0.00mm 0.00 W/m2 unknown
02:19 41 °F /  5.0 °C 37.4 °F /  3.0 °C 30.4in /  1029.4hPa ENE 5mph /  8km/h 6.8mph /  11km/h 89% 0in /  0.00mm 0.00 W/m2 unknown
02:24 41 °F /  5.0 °C 37.4 °F /  3.0 °C 30.4in /  1029.6hPa ENE 5mph /  8km/h 6.8mph /  11km/h 89% 0in /  0.00mm 0.00 W/m2 unknown
02:29 39.2 °F /  4.0 °C 37.4 °F /  3.0 °C 30.4in /  1029.7hPa ENE 4.3mph /  7km/h 6.8mph /  11km/h 89% 0in /  0.00mm 0.00 W/m2 unknown
02:34 39.2 °F /  4.0 °C 37.4 °F /  3.0 °C 30.4in /  1029.7hPa ENE 5.6mph /  9km/h 8.1mph /  13km/h 89% 0in /  0.00mm 0.00 W/m2 unknown
02:39 39.2 °F /  4.0 °C 37.4 °F /  3.0 °C 30.4in /  1029.7hPa ENE 6.8mph /  11km/h 9.3mph /  15km/h 88% 0in /  0.00mm 0.00 W/m2 unknown
02:44 39.2 °F /  4.0 °C 37.4 °F /  3.0 °C 30.4in /  1029.7hPa ENE 6.2mph /  10km/h 8.7mph /  14km/h 88% 0in /  0.00mm 0.00 W/m2 unknown
02:49 39.2 °F /  4.0 °C 37.4 °F /  3.0 °C 30.4in /  1029.7hPa ENE 5.6mph /  9km/h 8.1mph /  13km/h 88% 0in /  0.00mm 0.00 W/m2 unknown
02:54 39.2 °F /  4.0 °C 35.6 °F /  2.0 °C 30.4in /  1029.8hPa ENE 5mph /  8km/h 8.1mph /  13km/h 88% 0in /  0.00mm 0.00 W/m2 unknown
02:59 39.2 °F /  4.0 °C 35.6 °F /  2.0 °C 30.4in /  1029.8hPa ENE 5mph /  8km/h 6.8mph /  11km/h 88% 0in /  0.00mm 0.00 W/m2 unknown
03:04 39.2 °F /  4.0 °C 35.6 °F /  2.0 °C 30.4in /  1029.8hPa ENE 4.3mph /  7km/h 6.8mph /  11km/h 89% 0in /  0.00mm 0.00 W/m2 unknown
03:09 39.2 °F /  4.0 °C 35.6 °F /  2.0 °C 30.4in /  1029.8hPa ENE 3.7mph /  6km/h 6.2mph /  10km/h 89% 0in /  0.00mm 0.00 W/m2 unknown
03:14 39.2 °F /  4.0 °C 35.6 °F /  2.0 °C 30.4in /  1029.9hPa ENE 3.7mph /  6km/h 5mph /  8km/h 90% 0in /  0.00mm 0.00 W/m2 unknown
03:19 39.2 °F /  4.0 °C 35.6 °F /  2.0 °C 30.4in /  1029.9hPa ENE 3.1mph /  5km/h 5mph /  8km/h 90% 0in /  0.00mm 0.00 W/m2 unknown
03:24 39.2 °F /  4.0 °C 35.6 °F /  2.0 °C 30.4in /  1030.0hPa ENE 4.3mph /  7km/h 6.8mph /  11km/h 90% 0in /  0.00mm 0.00 W/m2 unknown
03:29 39.2 °F /  4.0 °C 35.6 °F /  2.0 °C 30.4in /  1030.1hPa ENE 5mph /  8km/h 6.8mph /  11km/h 90% 0in /  0.00mm 0.00 W/m2 unknown
03:34 39.2 °F /  4.0 °C 35.6 °F /  2.0 °C 30.4in /  1030.2hPa ENE 5mph /  8km/h 6.8mph /  11km/h 90% 0in /  0.00mm 0.00 W/m2 unknown
03:39 39.2 °F /  4.0 °C 35.6 °F /  2.0 °C 30.4in /  1030.2hPa ENE 5.6mph /  9km/h 8.1mph /  13km/h 90% 0in /  0.00mm 0.00 W/m2 unknown
03:44 39.2 °F /  4.0 °C 35.6 °F /  2.0 °C 30.4in /  1030.3hPa ENE 5.6mph /  9km/h 8.1mph /  13km/h 90% 0in /  0.00mm 0.00 W/m2 unknown
03:49 39.2 °F /  4.0 °C 35.6 °F /  2.0 °C 30.4in /  1030.4hPa ENE 5mph /  8km/h 8.1mph /  13km/h 90% 0in /  0.00mm 0.00 W/m2 unknown
03:54 39.2 °F /  4.0 °C 35.6 °F /  2.0 °C 30.4in /  1030.4hPa ENE 5mph /  8km/h 6.8mph /  11km/h 90% 0in /  0.00mm 0.00 W/m2 unknown
03:59 39.2 °F /  4.0 °C 35.6 °F /  2.0 °C 30.4in /  1030.5hPa ENE 5mph /  8km/h 6.8mph /  11km/h 91% 0in /  0.00mm 0.00 W/m2 unknown
04:04 39.2 °F /  4.0 °C 35.6 °F /  2.0 °C 30.4in /  1030.5hPa ENE 5.6mph /  9km/h 8.1mph /  13km/h 91% 0in /  0.00mm 0.00 W/m2 unknown
04:09 39.2 °F /  4.0 °C 35.6 °F /  2.0 °C 30.4in /  1030.5hPa East 5mph /  8km/h 8.1mph /  13km/h 91% 0in /  0.00mm 0.00 W/m2 unknown
04:14 39.2 °F /  4.0 °C 35.6 °F /  2.0 °C 30.4in /  1030.6hPa East 7.5mph /  12km/h 8.7mph /  14km/h 91% 0in /  0.00mm 0.00 W/m2 unknown
04:19 39.2 °F /  4.0 °C 37.4 °F /  3.0 °C 30.4in /  1030.7hPa East 7.5mph /  12km/h 11.8mph /  19km/h 91% 0in /  0.00mm 0.00 W/m2 unknown
04:24 39.2 °F /  4.0 °C 37.4 °F /  3.0 °C 30.4in /  1030.7hPa East 7.5mph /  12km/h 11.8mph /  19km/h 91% 0in /  0.00mm 0.00 W/m2 unknown
04:29 39.2 °F /  4.0 °C 37.4 °F /  3.0 °C 30.4in /  1030.7hPa East 7.5mph /  12km/h 9.9mph /  16km/h 91% 0in /  0.00mm 0.00 W/m2 unknown
04:34 39.2 °F /  4.0 °C 37.4 °F /  3.0 °C 30.4in /  1030.8hPa East 6.8mph /  11km/h 8.7mph /  14km/h 91% 0in /  0.00mm 0.00 W/m2 unknown
04:39 39.2 °F /  4.0 °C 37.4 °F /  3.0 °C 30.4in /  1030.8hPa East 6.2mph /  10km/h 8.1mph /  13km/h 91% 0in /  0.00mm 0.00 W/m2 unknown
04:44 39.2 °F /  4.0 °C 37.4 °F /  3.0 °C 30.4in /  1030.8hPa East 5.6mph /  9km/h 8.1mph /  13km/h 91% 0in /  0.00mm 0.00 W/m2 unknown
04:49 39.2 °F /  4.0 °C 37.4 °F /  3.0 °C 30.4in /  1030.8hPa East 5.6mph /  9km/h 6.8mph /  11km/h 91% 0in /  0.00mm 0.00 W/m2 unknown
04:54 39.2 °F /  4.0 °C 37.4 °F /  3.0 °C 30.4in /  1030.8hPa East 5mph /  8km/h 6.8mph /  11km/h 91% 0in /  0.00mm 0.00 W/m2 unknown
04:59 39.2 °F /  4.0 °C 37.4 °F /  3.0 °C 30.4in /  1030.9hPa East 5mph /  8km/h 6.8mph /  11km/h 91% 0in /  0.00mm 0.00 W/m2 unknown
05:04 39.2 °F /  4.0 °C 37.4 °F /  3.0 °C 30.4in /  1030.9hPa ENE 5mph /  8km/h 6.8mph /  11km/h 91% 0in /  0.00mm 0.00 W/m2 unknown
05:09 39.2 °F /  4.0 °C 37.4 °F /  3.0 °C 30.4in /  1031.0hPa ENE 4.3mph /  7km/h 6.2mph /  10km/h 91% 0in /  0.00mm 0.00 W/m2 unknown
05:14 39.2 °F /  4.0 °C 37.4 °F /  3.0 °C 30.4in /  1031.0hPa ENE 5mph /  8km/h 6.8mph /  11km/h 91% 0in /  0.00mm 0.00 W/m2 unknown
05:19 39.2 °F /  4.0 °C 37.4 °F /  3.0 °C 30.4in /  1031.0hPa ENE 4.3mph /  7km/h 6.8mph /  11km/h 91% 0in /  0.00mm 0.00 W/m2 unknown
05:24 39.2 °F /  4.0 °C 37.4 °F /  3.0 °C 30.4in /  1031.0hPa ENE 4.3mph /  7km/h 5mph /  8km/h 91% 0in /  0.00mm 0.00 W/m2 unknown
05:29 39.2 °F /  4.0 °C 35.6 °F /  2.0 °C 30.4in /  1031.0hPa ENE 3.1mph /  5km/h 5mph /  8km/h 91% 0in /  0.00mm 0.00 W/m2 unknown
05:34 39.2 °F /  4.0 °C 35.6 °F /  2.0 °C 30.4in /  1031.0hPa ENE 3.7mph /  6km/h 5mph /  8km/h 91% 0in /  0.00mm 0.00 W/m2 unknown
05:39 39.2 °F /  4.0 °C 35.6 °F /  2.0 °C 30.4in /  1031.0hPa ENE 3.1mph /  5km/h 5mph /  8km/h 91% 0in /  0.00mm 0.00 W/m2 unknown
05:44 37.4 °F /  3.0 °C 35.6 °F /  2.0 °C 30.5in /  1031.1hPa ENE 3.1mph /  5km/h 5mph /  8km/h 92% 0in /  0.00mm 0.00 W/m2 unknown
05:49 37.4 °F /  3.0 °C 35.6 °F /  2.0 °C 30.5in /  1031.1hPa ENE 3.1mph /  5km/h 5mph /  8km/h 92% 0in /  0.00mm 0.00 W/m2 unknown
05:54 37.4 °F /  3.0 °C 35.6 °F /  2.0 °C 30.5in /  1031.1hPa NE 3.1mph /  5km/h 3.7mph /  6km/h 92% 0in /  0.00mm 0.00 W/m2 unknown
05:59 37.4 °F /  3.0 °C 35.6 °F /  2.0 °C 30.5in /  1031.1hPa NE 3.1mph /  5km/h 3.7mph /  6km/h 92% 0in /  0.00mm 0.00 W/m2 unknown
06:04 37.4 °F /  3.0 °C 35.6 °F /  2.0 °C 30.5in /  1031.2hPa NE 3.1mph /  5km/h 3.7mph /  6km/h 92% 0in /  0.00mm 0.00 W/m2 unknown
06:09 37.4 °F /  3.0 °C 35.6 °F /  2.0 °C 30.5in /  1031.2hPa NE 3.1mph /  5km/h 3.7mph /  6km/h 92% 0in /  0.00mm 0.00 W/m2 unknown
06:14 37.4 °F /  3.0 °C 35.6 °F /  2.0 °C 30.5in /  1031.2hPa NE 2.5mph /  4km/h 3.7mph /  6km/h 92% 0in /  0.00mm 0.00 W/m2 unknown
06:19 37.4 °F /  3.0 °C 35.6 °F /  2.0 °C 30.5in /  1031.1hPa NE 3.1mph /  5km/h 3.7mph /  6km/h 93% 0in /  0.00mm 0.00 W/m2 unknown
06:24 37.4 °F /  3.0 °C 35.6 °F /  2.0 °C 30.5in /  1031.1hPa ENE 2.5mph /  4km/h 3.7mph /  6km/h 93% 0in /  0.00mm 0.00 W/m2 unknown
06:29 37.4 °F /  3.0 °C 35.6 °F /  2.0 °C 30.5in /  1031.2hPa ENE 2.5mph /  4km/h 3.7mph /  6km/h 92% 0in /  0.00mm 0.00 W/m2 unknown
06:34 37.4 °F /  3.0 °C 35.6 °F /  2.0 °C 30.5in /  1031.2hPa NE 3.1mph /  5km/h 3.7mph /  6km/h 92% 0in /  0.00mm 0.00 W/m2 unknown
06:39 37.4 °F /  3.0 °C 35.6 °F /  2.0 °C 30.5in /  1031.2hPa NE 2.5mph /  4km/h 3.7mph /  6km/h 92% 0in /  0.00mm 0.00 W/m2 unknown
06:44 37.4 °F /  3.0 °C 33.8 °F /  1.0 °C 30.5in /  1031.2hPa NE 2.5mph /  4km/h 3.7mph /  6km/h 92% 0in /  0.00mm 0.00 W/m2 unknown
06:49 35.6 °F /  2.0 °C 33.8 °F /  1.0 °C 30.5in /  1031.3hPa NE 2.5mph /  4km/h 3.7mph /  6km/h 92% 0in /  0.00mm 0.00 W/m2 unknown
06:54 35.6 °F /  2.0 °C 33.8 °F /  1.0 °C 30.5in /  1031.3hPa NE 2.5mph /  4km/h 3.7mph /  6km/h 92% 0in /  0.00mm 0.00 W/m2 unknown
06:59 35.6 °F /  2.0 °C 33.8 °F /  1.0 °C 30.5in /  1031.4hPa NE 1.9mph /  3km/h 3.7mph /  6km/h 93% 0in /  0.00mm 0.00 W/m2 unknown
07:04 35.6 °F /  2.0 °C 33.8 °F /  1.0 °C 30.5in /  1031.5hPa NE 1.2mph /  2km/h 3.1mph /  5km/h 93% 0in /  0.00mm 0.00 W/m2 unknown
07:09 35.6 °F /  2.0 °C 33.8 °F /  1.0 °C 30.5in /  1031.5hPa Calm   1.9mph /  3km/h 93% 0in /  0.00mm 0.00 W/m2 unknown
07:14 35.6 °F /  2.0 °C 33.8 °F /  1.0 °C 30.5in /  1031.6hPa Calm   1.2mph /  2km/h 93% 0in /  0.00mm 0.00 W/m2 unknown
07:19 35.6 °F /  2.0 °C 33.8 °F /  1.0 °C 30.5in /  1031.6hPa Calm   1.2mph /  2km/h 93% 0in /  0.00mm 0.00 W/m2 unknown
07:24 35.6 °F /  2.0 °C 33.8 °F /  1.0 °C 30.5in /  1031.7hPa NE 0.6mph /  1km/h 1.2mph /  2km/h 93% 0in /  0.00mm 0.00 W/m2 unknown
07:29 33.8 °F /  1.0 °C 32 °F /  0.0 °C 30.5in /  1031.7hPa ESE 1.2mph /  2km/h 2.5mph /  4km/h 93% 0in /  0.00mm 5.00 W/m2 unknown
07:34 33.8 °F /  1.0 °C 32 °F /  0.0 °C 30.5in /  1031.8hPa ESE 0.6mph /  1km/h 1.9mph /  3km/h 93% 0in /  0.00mm 9.00 W/m2 unknown
07:39 33.8 °F /  1.0 °C 33.8 °F /  1.0 °C 30.5in /  1031.8hPa Calm   1.2mph /  2km/h 94% 0in /  0.00mm 12.00 W/m2 unknown
07:44 33.8 °F /  1.0 °C 33.8 °F /  1.0 °C 30.5in /  1031.8hPa Calm   1.2mph /  2km/h 94% 0in /  0.00mm 14.00 W/m2 unknown
07:49 33.8 °F /  1.0 °C 32 °F /  0.0 °C 30.5in /  1031.9hPa Calm     94% 0in /  0.00mm 18.00 W/m2 unknown
07:54 33.8 °F /  1.0 °C 32 °F /  0.0 °C 30.5in /  1031.9hPa Calm     94% 0in /  0.00mm 19.00 W/m2 unknown
07:59 33.8 °F /  1.0 °C 32 °F /  0.0 °C 30.5in /  1031.9hPa Calm   1.2mph /  2km/h 94% 0in /  0.00mm 23.00 W/m2 unknown
08:04 33.8 °F /  1.0 °C 32 °F /  0.0 °C 30.5in /  1031.9hPa Calm   1.2mph /  2km/h 94% 0in /  0.00mm 37.00 W/m2 unknown
08:09 33.8 °F /  1.0 °C 32 °F /  0.0 °C 30.5in /  1031.9hPa Calm     94% 0in /  0.00mm 54.00 W/m2 unknown
08:14 33.8 °F /  1.0 °C 33.8 °F /  1.0 °C 30.5in /  1032.0hPa Calm     94% 0in /  0.00mm 67.00 W/m2 unknown
08:19 35.6 °F /  2.0 °C 33.8 °F /  1.0 °C 30.5in /  1032.1hPa Calm     94% 0in /  0.00mm 76.00 W/m2 unknown
08:24 35.6 °F /  2.0 °C 33.8 °F /  1.0 °C 30.5in /  1032.2hPa Calm     94% 0in /  0.00mm 91.00 W/m2 unknown
08:29 35.6 °F /  2.0 °C 33.8 °F /  1.0 °C 30.5in /  1032.3hPa SE 0.6mph /  1km/h 1.2mph /  2km/h 94% 0in /  0.00mm 105.00 W/m2 unknown
08:34 37.4 °F /  3.0 °C 35.6 °F /  2.0 °C 30.5in /  1032.4hPa SE 1.2mph /  2km/h 1.2mph /  2km/h 94% 0in /  0.00mm 120.00 W/m2 unknown
08:39 37.4 °F /  3.0 °C 35.6 °F /  2.0 °C 30.5in /  1032.5hPa SE 0.6mph /  1km/h 1.2mph /  2km/h 93% 0in /  0.00mm 132.00 W/m2 unknown
08:44 39.2 °F /  4.0 °C 35.6 °F /  2.0 °C 30.5in /  1032.6hPa ESE 0.6mph /  1km/h 1.2mph /  2km/h 92% 0in /  0.00mm 144.00 W/m2 unknown
08:49 39.2 °F /  4.0 °C 35.6 °F /  2.0 °C 30.5in /  1032.7hPa NNW 1.2mph /  2km/h 2.5mph /  4km/h 91% 0in /  0.00mm 162.00 W/m2 unknown
08:54 39.2 °F /  4.0 °C 35.6 °F /  2.0 °C 30.5in /  1032.7hPa NW 1.2mph /  2km/h 2.5mph /  4km/h 90% 0in /  0.00mm 176.00 W/m2 unknown
08:59 39.2 °F /  4.0 °C 37.4 °F /  3.0 °C 30.5in /  1032.7hPa NNW 1.2mph /  2km/h 2.5mph /  4km/h 89% 0in /  0.00mm 192.00 W/m2 unknown
09:04 41 °F /  5.0 °C 37.4 °F /  3.0 °C 30.5in /  1032.7hPa NNW 1.2mph /  2km/h 2.5mph /  4km/h 89% 0in /  0.00mm 204.00 W/m2 unknown
09:09 41 °F /  5.0 °C 37.4 °F /  3.0 °C 30.5in /  1032.8hPa North 1.2mph /  2km/h 2.5mph /  4km/h 88% 0in /  0.00mm 214.00 W/m2 unknown
09:14 42.8 °F /  6.0 °C 37.4 °F /  3.0 °C 30.5in /  1032.9hPa NNE 1.9mph /  3km/h 3.7mph /  6km/h 88% 0in /  0.00mm 227.00 W/m2 unknown
09:19 42.8 °F /  6.0 °C 37.4 °F /  3.0 °C 30.5in /  1032.9hPa NNE 3.1mph /  5km/h 3.7mph /  6km/h 85% 0in /  0.00mm 239.00 W/m2 unknown
09:24 42.8 °F /  6.0 °C 37.4 °F /  3.0 °C 30.5in /  1032.9hPa NE 3.1mph /  5km/h 3.7mph /  6km/h 83% 0in /  0.00mm 251.00 W/m2 unknown
09:29 42.8 °F /  6.0 °C 37.4 °F /  3.0 °C 30.5in /  1033.0hPa NE 2.5mph /  4km/h 3.7mph /  6km/h 80% 0in /  0.00mm 265.00 W/m2 unknown
09:34 42.8 °F /  6.0 °C 37.4 °F /  3.0 °C 30.5in /  1033.0hPa North 2.5mph /  4km/h 3.7mph /  6km/h 80% 0in /  0.00mm 276.00 W/m2 unknown
09:39 44.6 °F /  7.0 °C 37.4 °F /  3.0 °C 30.5in /  1033.0hPa North 2.5mph /  4km/h 3.7mph /  6km/h 80% 0in /  0.00mm 290.00 W/m2 unknown
09:44 44.6 °F /  7.0 °C 37.4 °F /  3.0 °C 30.5in /  1033.0hPa North 2.5mph /  4km/h 3.7mph /  6km/h 78% 0in /  0.00mm 302.00 W/m2 unknown
09:49 44.6 °F /  7.0 °C 39.2 °F /  4.0 °C 30.5in /  1033.1hPa NNE 1.9mph /  3km/h 3.7mph /  6km/h 78% 0in /  0.00mm 315.00 W/m2 unknown
09:54 46.4 °F /  8.0 °C 39.2 °F /  4.0 °C 30.5in /  1033.1hPa NNE 3.1mph /  5km/h 3.7mph /  6km/h 77% 0in /  0.00mm 327.00 W/m2 unknown
09:59 46.4 °F /  8.0 °C 39.2 °F /  4.0 °C 30.5in /  1033.1hPa NE 4.3mph /  7km/h 6.8mph /  11km/h 74% 0in /  0.00mm 339.00 W/m2 unknown
10:04 46.4 °F /  8.0 °C 37.4 °F /  3.0 °C 30.5in /  1033.1hPa NE 5mph /  8km/h 6.8mph /  11km/h 72% 0in /  0.00mm 350.00 W/m2 unknown
10:09 46.4 °F /  8.0 °C 37.4 °F /  3.0 °C 30.5in /  1033.0hPa NE 5mph /  8km/h 6.8mph /  11km/h 70% 0in /  0.00mm 360.00 W/m2 unknown
10:14 48.2 °F /  9.0 °C 37.4 °F /  3.0 °C 30.5in /  1033.1hPa ENE 5.6mph /  9km/h 8.1mph /  13km/h 69% 0in /  0.00mm 373.00 W/m2 unknown
10:19 48.2 °F /  9.0 °C 37.4 °F /  3.0 °C 30.5in /  1033.1hPa ENE 6.8mph /  11km/h 9.3mph /  15km/h 67% 0in /  0.00mm 381.00 W/m2 unknown
10:24 48.2 °F /  9.0 °C 37.4 °F /  3.0 °C 30.5in /  1033.1hPa ENE 7.5mph /  12km/h 9.3mph /  15km/h 66% 0in /  0.00mm 392.00 W/m2 unknown
10:29 48.2 °F /  9.0 °C 37.4 °F /  3.0 °C 30.5in /  1033.1hPa ENE 8.7mph /  14km/h 11.8mph /  19km/h 64% 0in /  0.00mm 401.00 W/m2 unknown
10:34 50 °F /  10.0 °C 35.6 °F /  2.0 °C 30.5in /  1033.1hPa ENE 7.5mph /  12km/h 11.8mph /  19km/h 60% 0in /  0.00mm 410.00 W/m2 unknown
10:39 50 °F /  10.0 °C 35.6 °F /  2.0 °C 30.5in /  1033.2hPa ENE 9.3mph /  15km/h 11.8mph /  19km/h 59% 0in /  0.00mm 418.00 W/m2 unknown
10:44 50 °F /  10.0 °C 35.6 °F /  2.0 °C 30.5in /  1033.2hPa ENE 9.3mph /  15km/h 11.8mph /  19km/h 57% 0in /  0.00mm 424.00 W/m2 unknown
10:49 50 °F /  10.0 °C 35.6 °F /  2.0 °C 30.5in /  1033.2hPa East 6.8mph /  11km/h 11.8mph /  19km/h 58% 0in /  0.00mm 434.00 W/m2 unknown
10:54 50 °F /  10.0 °C 35.6 °F /  2.0 °C 30.5in /  1033.2hPa ENE 7.5mph /  12km/h 9.9mph /  16km/h 58% 0in /  0.00mm 443.00 W/m2 unknown
10:59 50 °F /  10.0 °C 33.8 °F /  1.0 °C 30.5in /  1033.2hPa East 8.1mph /  13km/h 11.8mph /  19km/h 55% 0in /  0.00mm 450.00 W/m2 unknown
11:04 50 °F /  10.0 °C 33.8 °F /  1.0 °C 30.5in /  1033.2hPa ENE 8.7mph /  14km/h 11.8mph /  19km/h 54% 0in /  0.00mm 457.00 W/m2 unknown
11:09 50 °F /  10.0 °C 33.8 °F /  1.0 °C 30.5in /  1033.2hPa East 8.7mph /  14km/h 11.8mph /  19km/h 54% 0in /  0.00mm 461.00 W/m2 unknown
11:14 50 °F /  10.0 °C 33.8 °F /  1.0 °C 30.5in /  1033.2hPa ESE 8.7mph /  14km/h 11.8mph /  19km/h 53% 0in /  0.00mm 469.00 W/m2 unknown
11:19 50 °F /  10.0 °C 32 °F /  0.0 °C 30.5in /  1033.2hPa East 8.1mph /  13km/h 11.8mph /  19km/h 50% 0in /  0.00mm 476.00 W/m2 unknown
11:24 51.8 °F /  11.0 °C 32 °F /  0.0 °C 30.5in /  1033.2hPa East 7.5mph /  12km/h 9.9mph /  16km/h 49% 0in /  0.00mm 482.00 W/m2 unknown
11:29 51.8 °F /  11.0 °C 32 °F /  0.0 °C 30.5in /  1033.1hPa East 7.5mph /  12km/h 11.8mph /  19km/h 49% 0in /  0.00mm 485.00 W/m2 unknown
11:34 51.8 °F /  11.0 °C 33.8 °F /  1.0 °C 30.5in /  1033.1hPa ENE 8.1mph /  13km/h 11.8mph /  19km/h 49% 0in /  0.00mm 492.00 W/m2 unknown
11:39 51.8 °F /  11.0 °C 32 °F /  0.0 °C 30.5in /  1033.1hPa NE 10.6mph /  17km/h 14.9mph /  24km/h 48% 0in /  0.00mm 497.00 W/m2 unknown
11:44 51.8 °F /  11.0 °C 30.2 °F /  -1.0 °C 30.5in /  1033.0hPa ENE 13.7mph /  22km/h 18.6mph /  30km/h 43% 0in /  0.00mm 499.00 W/m2 unknown
11:49 51.8 °F /  11.0 °C 28.4 °F /  -2.0 °C 30.5in /  1033.0hPa ENE 11.8mph /  19km/h 18mph /  29km/h 41% 0in /  0.00mm 503.00 W/m2 unknown
11:54 51.8 °F /  11.0 °C 28.4 °F /  -2.0 °C 30.5in /  1033.0hPa East 11.2mph /  18km/h 14.9mph /  24km/h 41% 0in /  0.00mm 512.00 W/m2 unknown
11:59 51.8 °F /  11.0 °C 28.4 °F /  -2.0 °C 30.5in /  1032.9hPa East 11.8mph /  19km/h 14.9mph /  24km/h 41% 0in /  0.00mm 512.00 W/m2 unknown
12:04 51.8 °F /  11.0 °C 28.4 °F /  -2.0 °C 30.5in /  1032.9hPa East 12.4mph /  20km/h 14.9mph /  24km/h 41% 0in /  0.00mm 513.00 W/m2 unknown
12:09 51.8 °F /  11.0 °C 28.4 °F /  -2.0 °C 30.5in /  1032.8hPa ENE 13mph /  21km/h 14.9mph /  24km/h 41% 0in /  0.00mm 517.00 W/m2 unknown
12:14 51.8 °F /  11.0 °C 28.4 °F /  -2.0 °C 30.5in /  1032.7hPa ENE 13mph /  21km/h 16.2mph /  26km/h 40% 0in /  0.00mm 520.00 W/m2 unknown
12:19 53.6 °F /  12.0 °C 28.4 °F /  -2.0 °C 30.5in /  1032.7hPa East 11.2mph /  18km/h 16.2mph /  26km/h 39% 0in /  0.00mm 524.00 W/m2 unknown
12:24 53.6 °F /  12.0 °C 28.4 °F /  -2.0 °C 30.5in /  1032.5hPa ENE 13mph /  21km/h 14.9mph /  24km/h 39% 0in /  0.00mm 522.00 W/m2 unknown
12:29 53.6 °F /  12.0 °C 28.4 °F /  -2.0 °C 30.5in /  1032.5hPa ENE 9.9mph /  16km/h 14.9mph /  24km/h 40% 0in /  0.00mm 527.00 W/m2 unknown
12:34 53.6 °F /  12.0 °C 28.4 °F /  -2.0 °C 30.5in /  1032.4hPa East 14.3mph /  23km/h 19.9mph /  32km/h 40% 0in /  0.00mm 527.00 W/m2 unknown
12:39 53.6 °F /  12.0 °C 26.6 °F /  -3.0 °C 30.5in /  1032.3hPa East 12.4mph /  20km/h 16.2mph /  26km/h 36% 0in /  0.00mm 529.00 W/m2 unknown
12:44 53.6 °F /  12.0 °C 26.6 °F /  -3.0 °C 30.5in /  1032.2hPa East 13.7mph /  22km/h 17.4mph /  28km/h 36% 0in /  0.00mm 529.00 W/m2 unknown
12:49 53.6 °F /  12.0 °C 24.8 °F /  -4.0 °C 30.5in /  1032.1hPa East 11.8mph /  19km/h 17.4mph /  28km/h 34% 0in /  0.00mm 529.00 W/m2 unknown
12:54 53.6 °F /  12.0 °C 24.8 °F /  -4.0 °C 30.5in /  1032.0hPa East 11.8mph /  19km/h 16.8mph /  27km/h 34% 0in /  0.00mm 529.00 W/m2 unknown
12:59 53.6 °F /  12.0 °C 24.8 °F /  -4.0 °C 30.5in /  1031.9hPa ESE 14.3mph /  23km/h 17.4mph /  28km/h 34% 0in /  0.00mm 527.00 W/m2 unknown
13:04 53.6 °F /  12.0 °C 26.6 °F /  -3.0 °C 30.5in /  1031.9hPa East 13.7mph /  22km/h 18mph /  29km/h 35% 0in /  0.00mm 527.00 W/m2 unknown
13:09 53.6 °F /  12.0 °C 26.6 °F /  -3.0 °C 30.5in /  1031.8hPa East 11.8mph /  19km/h 18mph /  29km/h 34% 0in /  0.00mm 524.00 W/m2 unknown
13:14 53.6 °F /  12.0 °C 24.8 °F /  -4.0 °C 30.5in /  1031.8hPa ESE 9.9mph /  16km/h 16.2mph /  26km/h 34% 0in /  0.00mm 524.00 W/m2 unknown
13:19 53.6 °F /  12.0 °C 26.6 °F /  -3.0 °C 30.5in /  1031.7hPa East 10.6mph /  17km/h 14.9mph /  24km/h 35% 0in /  0.00mm 520.00 W/m2 unknown
13:24 53.6 °F /  12.0 °C 28.4 °F /  -2.0 °C 30.5in /  1031.7hPa ENE 9.9mph /  16km/h 14.9mph /  24km/h 36% 0in /  0.00mm 519.00 W/m2 unknown
13:29 53.6 °F /  12.0 °C 28.4 °F /  -2.0 °C 30.5in /  1031.6hPa East 13.7mph /  22km/h 17.4mph /  28km/h 36% 0in /  0.00mm 513.00 W/m2 unknown
13:34 53.6 °F /  12.0 °C 24.8 °F /  -4.0 °C 30.5in /  1031.5hPa ESE 13mph /  21km/h 16.8mph /  27km/h 34% 0in /  0.00mm 510.00 W/m2 unknown
13:39 53.6 °F /  12.0 °C 24.8 °F /  -4.0 °C 30.5in /  1031.4hPa East 11.2mph /  18km/h 14.3mph /  23km/h 33% 0in /  0.00mm 506.00 W/m2 unknown
13:44 53.6 °F /  12.0 °C 24.8 °F /  -4.0 °C 30.5in /  1031.4hPa East 10.6mph /  17km/h 14.9mph /  24km/h 33% 0in /  0.00mm 504.00 W/m2 unknown
13:49 53.6 °F /  12.0 °C 26.6 °F /  -3.0 °C 30.5in /  1031.4hPa ESE 11.2mph /  18km/h 14.9mph /  24km/h 34% 0in /  0.00mm 497.00 W/m2 unknown
13:54 53.6 °F /  12.0 °C 26.6 °F /  -3.0 °C 30.5in /  1031.3hPa East 9.9mph /  16km/h 14.9mph /  24km/h 34% 0in /  0.00mm 492.00 W/m2 unknown
13:59 53.6 °F /  12.0 °C 26.6 °F /  -3.0 °C 30.5in /  1031.2hPa East 9.9mph /  16km/h 14.3mph /  23km/h 34% 0in /  0.00mm 485.00 W/m2 unknown
14:04 53.6 °F /  12.0 °C 26.6 °F /  -3.0 °C 30.5in /  1031.2hPa East 8.7mph /  14km/h 12.4mph /  20km/h 34% 0in /  0.00mm 482.00 W/m2 unknown
14:09 53.6 °F /  12.0 °C 26.6 °F /  -3.0 °C 30.5in /  1031.1hPa East 13mph /  21km/h 19.9mph /  32km/h 34% 0in /  0.00mm 473.00 W/m2 unknown
14:14 53.6 °F /  12.0 °C 26.6 °F /  -3.0 °C 30.4in /  1031.0hPa East 10.6mph /  17km/h 12.4mph /  20km/h 34% 0in /  0.00mm 468.00 W/m2 unknown
14:19 53.6 °F /  12.0 °C 26.6 °F /  -3.0 °C 30.4in /  1031.0hPa East 11.2mph /  18km/h 14.9mph /  24km/h 35% 0in /  0.00mm 457.00 W/m2 unknown
14:24 53.6 °F /  12.0 °C 26.6 °F /  -3.0 °C 30.4in /  1031.0hPa East 7.5mph /  12km/h 11.2mph /  18km/h 35% 0in /  0.00mm 454.00 W/m2 unknown
14:29 53.6 °F /  12.0 °C 26.6 °F /  -3.0 °C 30.4in /  1030.9hPa ESE 9.3mph /  15km/h 11.8mph /  19km/h 34% 0in /  0.00mm 445.00 W/m2 unknown
14:34 53.6 °F /  12.0 °C 26.6 °F /  -3.0 °C 30.4in /  1030.8hPa East 9.9mph /  16km/h 11.8mph /  19km/h 34% 0in /  0.00mm 438.00 W/m2 unknown
14:39 55.4 °F /  13.0 °C 26.6 °F /  -3.0 °C 30.4in /  1030.8hPa ENE 8.7mph /  14km/h 14.9mph /  24km/h 34% 0in /  0.00mm 429.00 W/m2 unknown
14:44 55.4 °F /  13.0 °C 26.6 °F /  -3.0 °C 30.4in /  1030.7hPa East 12.4mph /  20km/h 14.9mph /  24km/h 34% 0in /  0.00mm 422.00 W/m2 unknown
14:49 53.6 °F /  12.0 °C 24.8 °F /  -4.0 °C 30.4in /  1030.6hPa East 11.8mph /  19km/h 17.4mph /  28km/h 33% 0in /  0.00mm 411.00 W/m2 unknown
14:54 53.6 °F /  12.0 °C 24.8 °F /  -4.0 °C 30.4in /  1030.6hPa East 11.8mph /  19km/h 17.4mph /  28km/h 33% 0in /  0.00mm 403.00 W/m2 unknown
14:59 53.6 °F /  12.0 °C 26.6 °F /  -3.0 °C 30.4in /  1030.5hPa East 11.8mph /  19km/h 16.2mph /  26km/h 34% 0in /  0.00mm 394.00 W/m2 unknown
15:04 53.6 °F /  12.0 °C 26.6 °F /  -3.0 °C 30.4in /  1030.5hPa East 8.7mph /  14km/h 16.2mph /  26km/h 34% 0in /  0.00mm 385.00 W/m2 unknown
15:09 53.6 °F /  12.0 °C 26.6 °F /  -3.0 °C 30.4in /  1030.4hPa ESE 12.4mph /  20km/h 14.9mph /  24km/h 34% 0in /  0.00mm 376.00 W/m2 unknown
15:14 53.6 °F /  12.0 °C 26.6 °F /  -3.0 °C 30.4in /  1030.4hPa ESE 12.4mph /  20km/h 16.2mph /  26km/h 34% 0in /  0.00mm 366.00 W/m2 unknown
15:19 53.6 °F /  12.0 °C 26.6 °F /  -3.0 °C 30.4in /  1030.4hPa East 11.2mph /  18km/h 16.2mph /  26km/h 34% 0in /  0.00mm 355.00 W/m2 unknown
15:24 53.6 °F /  12.0 °C 26.6 °F /  -3.0 °C 30.4in /  1030.4hPa ESE 11.2mph /  18km/h 14.9mph /  24km/h 34% 0in /  0.00mm 343.00 W/m2 unknown
15:29 53.6 °F /  12.0 °C 26.6 °F /  -3.0 °C 30.4in /  1030.3hPa East 13mph /  21km/h 17.4mph /  28km/h 34% 0in /  0.00mm 330.00 W/m2 unknown
15:34 53.6 °F /  12.0 °C 26.6 °F /  -3.0 °C 30.4in /  1030.3hPa East 10.6mph /  17km/h 16.8mph /  27km/h 35% 0in /  0.00mm 323.00 W/m2 unknown
15:39 53.6 °F /  12.0 °C 26.6 °F /  -3.0 °C 30.4in /  1030.2hPa ENE 6.8mph /  11km/h 14.3mph /  23km/h 35% 0in /  0.00mm 309.00 W/m2 unknown
15:44 53.6 °F /  12.0 °C 26.6 °F /  -3.0 °C 30.4in /  1030.2hPa ENE 8.7mph /  14km/h 11.8mph /  19km/h 34% 0in /  0.00mm 297.00 W/m2 unknown
15:49 53.6 °F /  12.0 °C 26.6 °F /  -3.0 °C 30.4in /  1030.2hPa East 8.1mph /  13km/h 11.8mph /  19km/h 34% 0in /  0.00mm 285.00 W/m2 unknown
15:54 53.6 °F /  12.0 °C 26.6 °F /  -3.0 °C 30.4in /  1030.1hPa East 6.2mph /  10km/h 11.8mph /  19km/h 35% 0in /  0.00mm 272.00 W/m2 unknown
15:59 53.6 °F /  12.0 °C 26.6 °F /  -3.0 °C 30.4in /  1030.1hPa East 7.5mph /  12km/h 9.3mph /  15km/h 35% 0in /  0.00mm 260.00 W/m2 unknown
16:04 53.6 °F /  12.0 °C 26.6 °F /  -3.0 °C 30.4in /  1030.0hPa ESE 9.9mph /  16km/h 11.8mph /  19km/h 36% 0in /  0.00mm 248.00 W/m2 unknown
16:09 53.6 °F /  12.0 °C 26.6 °F /  -3.0 °C 30.4in /  1030.0hPa East 9.9mph /  16km/h 13mph /  21km/h 36% 0in /  0.00mm 236.00 W/m2 unknown
16:14 53.6 °F /  12.0 °C 28.4 °F /  -2.0 °C 30.4in /  1030.0hPa East 8.7mph /  14km/h 13mph /  21km/h 37% 0in /  0.00mm 220.00 W/m2 unknown
16:19 53.6 °F /  12.0 °C 26.6 °F /  -3.0 °C 30.4in /  1030.0hPa East 8.1mph /  13km/h 11.8mph /  19km/h 37% 0in /  0.00mm 202.00 W/m2 unknown
16:24 53.6 °F /  12.0 °C 26.6 °F /  -3.0 °C 30.4in /  1029.9hPa East 8.1mph /  13km/h 11.8mph /  19km/h 37% 0in /  0.00mm 171.00 W/m2 unknown
16:29 53.6 °F /  12.0 °C 26.6 °F /  -3.0 °C 30.4in /  1029.9hPa East 9.9mph /  16km/h 14.3mph /  23km/h 37% 0in /  0.00mm 160.00 W/m2 unknown
16:34 53.6 °F /  12.0 °C 28.4 °F /  -2.0 °C 30.4in /  1029.8hPa East 8.7mph /  14km/h 14.3mph /  23km/h 38% 0in /  0.00mm 49.00 W/m2 unknown
16:39 51.8 °F /  11.0 °C 26.6 °F /  -3.0 °C 30.4in /  1029.8hPa East 6.8mph /  11km/h 13mph /  21km/h 38% 0in /  0.00mm 44.00 W/m2 unknown
16:44 51.8 °F /  11.0 °C 26.6 °F /  -3.0 °C 30.4in /  1029.8hPa East 6.2mph /  10km/h 9.9mph /  16km/h 38% 0in /  0.00mm 69.00 W/m2 unknown
16:49 51.8 °F /  11.0 °C 28.4 °F /  -2.0 °C 30.4in /  1029.7hPa East 9.3mph /  15km/h 13mph /  21km/h 39% 0in /  0.00mm 91.00 W/m2 unknown
16:54 51.8 °F /  11.0 °C 28.4 °F /  -2.0 °C 30.4in /  1029.7hPa East 8.1mph /  13km/h 11.8mph /  19km/h 39% 0in /  0.00mm 91.00 W/m2 unknown
16:59 51.8 °F /  11.0 °C 26.6 °F /  -3.0 °C 30.4in /  1029.7hPa East 6.2mph /  10km/h 11.8mph /  19km/h 39% 0in /  0.00mm 70.00 W/m2 unknown
17:04 51.8 °F /  11.0 °C 28.4 °F /  -2.0 °C 30.4in /  1029.7hPa ESE 5.6mph /  9km/h 8.7mph /  14km/h 40% 0in /  0.00mm 49.00 W/m2 unknown
17:09 51.8 °F /  11.0 °C 28.4 °F /  -2.0 °C 30.4in /  1029.7hPa ESE 6.2mph /  10km/h 9.3mph /  15km/h 41% 0in /  0.00mm 42.00 W/m2 unknown
17:14 51.8 °F /  11.0 °C 28.4 °F /  -2.0 °C 30.4in /  1029.8hPa SE 5mph /  8km/h 8.7mph /  14km/h 43% 0in /  0.00mm 35.00 W/m2 unknown
17:19 50 °F /  10.0 °C 28.4 °F /  -2.0 °C 30.4in /  1029.8hPa SE 3.1mph /  5km/h 6.8mph /  11km/h 43% 0in /  0.00mm 21.00 W/m2 unknown
17:24 50 °F /  10.0 °C 28.4 °F /  -2.0 °C 30.4in /  1029.8hPa SE 3.1mph /  5km/h 3.7mph /  6km/h 44% 0in /  0.00mm 14.00 W/m2 unknown
17:29 50 °F /  10.0 °C 28.4 °F /  -2.0 °C 30.4in /  1029.8hPa ESE 3.7mph /  6km/h 5mph /  8km/h 45% 0in /  0.00mm 9.00 W/m2 unknown
17:34 50 °F /  10.0 °C 28.4 °F /  -2.0 °C 30.4in /  1029.9hPa SE 2.5mph /  4km/h 5mph /  8km/h 45% 0in /  0.00mm 5.00 W/m2 unknown
17:39 48.2 °F /  9.0 °C 28.4 °F /  -2.0 °C 30.4in /  1030.0hPa SE 1.9mph /  3km/h 3.7mph /  6km/h 47% 0in /  0.00mm 0.00 W/m2 unknown
17:44 48.2 °F /  9.0 °C 28.4 °F /  -2.0 °C 30.4in /  1030.0hPa SE 1.9mph /  3km/h 3.1mph /  5km/h 48% 0in /  0.00mm 0.00 W/m2 unknown
17:49 48.2 °F /  9.0 °C 28.4 °F /  -2.0 °C 30.4in /  1030.0hPa SE 1.9mph /  3km/h 3.1mph /  5km/h 48% 0in /  0.00mm 0.00 W/m2 unknown
17:54 48.2 °F /  9.0 °C 28.4 °F /  -2.0 °C 30.4in /  1030.1hPa SE 1.9mph /  3km/h 3.7mph /  6km/h 50% 0in /  0.00mm 0.00 W/m2 unknown
17:59 46.4 °F /  8.0 °C 30.2 °F /  -1.0 °C 30.4in /  1030.1hPa SE 2.5mph /  4km/h 3.7mph /  6km/h 53% 0in /  0.00mm 0.00 W/m2 unknown
18:04 46.4 °F /  8.0 °C 30.2 °F /  -1.0 °C 30.4in /  1030.2hPa SE 1.9mph /  3km/h 3.7mph /  6km/h 54% 0in /  0.00mm 0.00 W/m2 unknown
18:09 46.4 °F /  8.0 °C 30.2 °F /  -1.0 °C 30.4in /  1030.2hPa SE 1.9mph /  3km/h 3.7mph /  6km/h 54% 0in /  0.00mm 0.00 W/m2 unknown
18:14 46.4 °F /  8.0 °C 30.2 °F /  -1.0 °C 30.4in /  1030.2hPa ESE 2.5mph /  4km/h 3.7mph /  6km/h 52% 0in /  0.00mm 0.00 W/m2 unknown
18:19 46.4 °F /  8.0 °C 30.2 °F /  -1.0 °C 30.4in /  1030.2hPa ESE 2.5mph /  4km/h 3.7mph /  6km/h 52% 0in /  0.00mm 0.00 W/m2 unknown
18:24 46.4 °F /  8.0 °C 30.2 °F /  -1.0 °C 30.4in /  1030.2hPa ESE 1.9mph /  3km/h 3.1mph /  5km/h 53% 0in /  0.00mm 0.00 W/m2 unknown
18:29 46.4 °F /  8.0 °C 30.2 °F /  -1.0 °C 30.4in /  1030.2hPa ESE 1.9mph /  3km/h 3.7mph /  6km/h 54% 0in /  0.00mm 0.00 W/m2 unknown
18:34 44.6 °F /  7.0 °C 30.2 °F /  -1.0 °C 30.4in /  1030.3hPa ESE 2.5mph /  4km/h 3.7mph /  6km/h 55% 0in /  0.00mm 0.00 W/m2 unknown
18:39 44.6 °F /  7.0 °C 30.2 °F /  -1.0 °C 30.4in /  1030.3hPa ESE 2.5mph /  4km/h 3.7mph /  6km/h 57% 0in /  0.00mm 0.00 W/m2 unknown
18:44 44.6 °F /  7.0 °C 32 °F /  0.0 °C 30.4in /  1030.3hPa ESE 2.5mph /  4km/h 3.7mph /  6km/h 61% 0in /  0.00mm 0.00 W/m2 unknown
18:49 44.6 °F /  7.0 °C 30.2 °F /  -1.0 °C 30.4in /  1030.3hPa ESE 1.2mph /  2km/h 3.1mph /  5km/h 59% 0in /  0.00mm 0.00 W/m2 unknown
18:54 42.8 °F /  6.0 °C 30.2 °F /  -1.0 °C 30.4in /  1030.4hPa ESE 1.2mph /  2km/h 3.7mph /  6km/h 59% 0in /  0.00mm 0.00 W/m2 unknown
18:59 42.8 °F /  6.0 °C 30.2 °F /  -1.0 °C 30.4in /  1030.4hPa ESE 1.2mph /  2km/h 3.1mph /  5km/h 60% 0in /  0.00mm 0.00 W/m2 unknown
19:04 42.8 °F /  6.0 °C 30.2 °F /  -1.0 °C 30.4in /  1030.5hPa Calm   1.2mph /  2km/h 60% 0in /  0.00mm 0.00 W/m2 unknown
19:09 42.8 °F /  6.0 °C 30.2 °F /  -1.0 °C 30.4in /  1030.6hPa Calm     60% 0in /  0.00mm 0.00 W/m2 unknown
19:14 42.8 °F /  6.0 °C 30.2 °F /  -1.0 °C 30.4in /  1030.6hPa Calm     60% 0in /  0.00mm 0.00 W/m2 unknown
19:19 42.8 °F /  6.0 °C 30.2 °F /  -1.0 °C 30.4in /  1030.6hPa Calm     61% 0in /  0.00mm 0.00 W/m2 unknown
19:24 42.8 °F /  6.0 °C 30.2 °F /  -1.0 °C 30.4in /  1030.6hPa Calm     62% 0in /  0.00mm 0.00 W/m2 unknown
19:29 41 °F /  5.0 °C 30.2 °F /  -1.0 °C 30.4in /  1030.6hPa Calm     63% 0in /  0.00mm 0.00 W/m2 unknown
19:34 41 °F /  5.0 °C 30.2 °F /  -1.0 °C 30.4in /  1030.6hPa Calm     63% 0in /  0.00mm 0.00 W/m2 unknown
19:39 41 °F /  5.0 °C 30.2 °F /  -1.0 °C 30.4in /  1030.6hPa Calm     64% 0in /  0.00mm 0.00 W/m2 unknown
19:44 41 °F /  5.0 °C 30.2 °F /  -1.0 °C 30.4in /  1030.6hPa Calm     65% 0in /  0.00mm 0.00 W/m2 unknown
19:49 39.2 °F /  4.0 °C 30.2 °F /  -1.0 °C 30.4in /  1030.6hPa Calm     66% 0in /  0.00mm 0.00 W/m2 unknown
19:54 39.2 °F /  4.0 °C 30.2 °F /  -1.0 °C 30.4in /  1030.6hPa Calm     66% 0in /  0.00mm 0.00 W/m2 unknown
19:59 39.2 °F /  4.0 °C 30.2 °F /  -1.0 °C 30.4in /  1030.6hPa Calm     67% 0in /  0.00mm 0.00 W/m2 unknown
20:04 39.2 °F /  4.0 °C 30.2 °F /  -1.0 °C 30.4in /  1030.6hPa Calm     68% 0in /  0.00mm 0.00 W/m2 unknown
20:09 39.2 °F /  4.0 °C 30.2 °F /  -1.0 °C 30.4in /  1030.6hPa Calm     68% 0in /  0.00mm 0.00 W/m2 unknown
20:14 39.2 °F /  4.0 °C 30.2 °F /  -1.0 °C 30.4in /  1030.6hPa Calm     68% 0in /  0.00mm 0.00 W/m2 unknown
20:19 39.2 °F /  4.0 °C 30.2 °F /  -1.0 °C 30.4in /  1030.6hPa Calm     68% 0in /  0.00mm 0.00 W/m2 unknown
20:24 39.2 °F /  4.0 °C 30.2 °F /  -1.0 °C 30.4in /  1030.6hPa Calm     68% 0in /  0.00mm 0.00 W/m2 unknown
20:29 39.2 °F /  4.0 °C 30.2 °F /  -1.0 °C 30.4in /  1030.6hPa Calm     66% 0in /  0.00mm 0.00 W/m2 unknown
20:34 39.2 °F /  4.0 °C 30.2 °F /  -1.0 °C 30.4in /  1030.6hPa Calm     67% 0in /  0.00mm 0.00 W/m2 unknown
20:39 39.2 °F /  4.0 °C 30.2 °F /  -1.0 °C 30.4in /  1030.6hPa Calm     69% 0in /  0.00mm 0.00 W/m2 unknown
20:44 39.2 °F /  4.0 °C 30.2 °F /  -1.0 °C 30.4in /  1030.6hPa Calm     69% 0in /  0.00mm 0.00 W/m2 unknown
20:49 39.2 °F /  4.0 °C 30.2 °F /  -1.0 °C 30.4in /  1030.6hPa Calm     68% 0in /  0.00mm 0.00 W/m2 unknown
20:54 39.2 °F /  4.0 °C 28.4 °F /  -2.0 °C 30.4in /  1030.7hPa Calm     67% 0in /  0.00mm 0.00 W/m2 unknown
20:59 39.2 °F /  4.0 °C 30.2 °F /  -1.0 °C 30.4in /  1030.7hPa Calm     67% 0in /  0.00mm 0.00 W/m2 unknown
21:04 39.2 °F /  4.0 °C 28.4 °F /  -2.0 °C 30.4in /  1030.7hPa Calm     68% 0in /  0.00mm 0.00 W/m2 unknown
21:09 39.2 °F /  4.0 °C 30.2 °F /  -1.0 °C 30.4in /  1030.7hPa Calm     70% 0in /  0.00mm 0.00 W/m2 unknown
21:14 37.4 °F /  3.0 °C 30.2 °F /  -1.0 °C 30.4in /  1030.8hPa Calm     70% 0in /  0.00mm 0.00 W/m2 unknown
21:19 37.4 °F /  3.0 °C 28.4 °F /  -2.0 °C 30.4in /  1030.8hPa Calm     71% 0in /  0.00mm 0.00 W/m2 unknown
21:24 37.4 °F /  3.0 °C 28.4 °F /  -2.0 °C 30.4in /  1030.9hPa Calm     71% 0in /  0.00mm 0.00 W/m2 unknown
21:29 37.4 °F /  3.0 °C 28.4 °F /  -2.0 °C 30.4in /  1030.9hPa Calm     73% 0in /  0.00mm 0.00 W/m2 unknown
21:34 35.6 °F /  2.0 °C 28.4 °F /  -2.0 °C 30.4in /  1030.9hPa NE 3.1mph /  5km/h 3.7mph /  6km/h 74% 0in /  0.00mm 0.00 W/m2 unknown
21:39 37.4 °F /  3.0 °C 28.4 °F /  -2.0 °C 30.4in /  1030.9hPa NE 3.1mph /  5km/h 3.7mph /  6km/h 74% 0in /  0.00mm 0.00 W/m2 unknown
21:44 37.4 °F /  3.0 °C 28.4 °F /  -2.0 °C 30.4in /  1031.0hPa NE 2.5mph /  4km/h 3.7mph /  6km/h 73% 0in /  0.00mm 0.00 W/m2 unknown
21:49 37.4 °F /  3.0 °C 28.4 °F /  -2.0 °C 30.4in /  1031.0hPa ENE 2.5mph /  4km/h 3.7mph /  6km/h 70% 0in /  0.00mm 0.00 W/m2 unknown
21:54 37.4 °F /  3.0 °C 28.4 °F /  -2.0 °C 30.4in /  1030.9hPa ENE 1.9mph /  3km/h 3.7mph /  6km/h 70% 0in /  0.00mm 0.00 W/m2 unknown
21:59 37.4 °F /  3.0 °C 28.4 °F /  -2.0 °C 30.4in /  1030.9hPa ENE 1.9mph /  3km/h 3.7mph /  6km/h 70% 0in /  0.00mm 0.00 W/m2 unknown
22:04 37.4 °F /  3.0 °C 28.4 °F /  -2.0 °C 30.4in /  1030.9hPa ENE 1.9mph /  3km/h 3.1mph /  5km/h 71% 0in /  0.00mm 0.00 W/m2 unknown
22:09 37.4 °F /  3.0 °C 28.4 °F /  -2.0 °C 30.4in /  1031.0hPa ENE 1.9mph /  3km/h 2.5mph /  4km/h 72% 0in /  0.00mm 0.00 W/m2 unknown
22:14 35.6 °F /  2.0 °C 28.4 °F /  -2.0 °C 30.4in /  1031.0hPa ENE 1.9mph /  3km/h 3.7mph /  6km/h 74% 0in /  0.00mm 0.00 W/m2 unknown
22:19 35.6 °F /  2.0 °C 28.4 °F /  -2.0 °C 30.4in /  1031.0hPa ENE 1.2mph /  2km/h 3.1mph /  5km/h 74% 0in /  0.00mm 0.00 W/m2 unknown
22:24 35.6 °F /  2.0 °C 28.4 °F /  -2.0 °C 30.4in /  1031.0hPa Calm   1.2mph /  2km/h 75% 0in /  0.00mm 0.00 W/m2 unknown
22:29 35.6 °F /  2.0 °C 28.4 °F /  -2.0 °C 30.4in /  1031.0hPa Calm     75% 0in /  0.00mm 0.00 W/m2 unknown
22:34 35.6 °F /  2.0 °C 28.4 °F /  -2.0 °C 30.4in /  1031.0hPa East 2.5mph /  4km/h 3.7mph /  6km/h 76% 0in /  0.00mm 0.00 W/m2 unknown
22:39 35.6 °F /  2.0 °C 28.4 °F /  -2.0 °C 30.4in /  1031.0hPa ENE 1.9mph /  3km/h 3.7mph /  6km/h 76% 0in /  0.00mm 0.00 W/m2 unknown
22:44 35.6 °F /  2.0 °C 28.4 °F /  -2.0 °C 30.4in /  1030.9hPa East 1.9mph /  3km/h 3.7mph /  6km/h 76% 0in /  0.00mm 0.00 W/m2 unknown
22:49 35.6 °F /  2.0 °C 28.4 °F /  -2.0 °C 30.4in /  1030.9hPa ENE 2.5mph /  4km/h 3.7mph /  6km/h 77% 0in /  0.00mm 0.00 W/m2 unknown
22:54 35.6 °F /  2.0 °C 28.4 °F /  -2.0 °C 30.4in /  1030.9hPa ENE 1.9mph /  3km/h 2.5mph /  4km/h 77% 0in /  0.00mm 0.00 W/m2 unknown
22:59 35.6 °F /  2.0 °C 28.4 °F /  -2.0 °C 30.4in /  1031.0hPa ENE 1.9mph /  3km/h 2.5mph /  4km/h 76% 0in /  0.00mm 0.00 W/m2 unknown
23:04 35.6 °F /  2.0 °C 28.4 °F /  -2.0 °C 30.4in /  1031.0hPa ENE 1.9mph /  3km/h 2.5mph /  4km/h 76% 0in /  0.00mm 0.00 W/m2 unknown
23:09 35.6 °F /  2.0 °C 28.4 °F /  -2.0 °C 30.4in /  1031.0hPa ENE 2.5mph /  4km/h 3.7mph /  6km/h 77% 0in /  0.00mm 0.00 W/m2 unknown
23:14 35.6 °F /  2.0 °C 28.4 °F /  -2.0 °C 30.4in /  1030.9hPa ENE 2.5mph /  4km/h 3.7mph /  6km/h 77% 0in /  0.00mm 0.00 W/m2 unknown
23:19 35.6 °F /  2.0 °C 28.4 °F /  -2.0 °C 30.4in /  1030.9hPa ENE 3.1mph /  5km/h 3.7mph /  6km/h 77% 0in /  0.00mm 0.00 W/m2 unknown
23:24 35.6 °F /  2.0 °C 28.4 °F /  -2.0 °C 30.4in /  1030.9hPa ENE 2.5mph /  4km/h 3.7mph /  6km/h 77% 0in /  0.00mm 0.00 W/m2 unknown
23:29 35.6 °F /  2.0 °C 28.4 °F /  -2.0 °C 30.4in /  1030.9hPa ENE 3.1mph /  5km/h 3.7mph /  6km/h 77% 0in /  0.00mm 0.00 W/m2 unknown
23:34 37.4 °F /  3.0 °C 28.4 °F /  -2.0 °C 30.4in /  1030.9hPa ENE 3.1mph /  5km/h 3.7mph /  6km/h 74% 0in /  0.00mm 0.00 W/m2 unknown
23:39 37.4 °F /  3.0 °C 28.4 °F /  -2.0 °C 30.4in /  1030.8hPa ENE 2.5mph /  4km/h 5mph /  8km/h 71% 0in /  0.00mm 0.00 W/m2 unknown
23:44 37.4 °F /  3.0 °C 28.4 °F /  -2.0 °C 30.4in /  1030.8hPa ENE 3.7mph /  6km/h 5mph /  8km/h 70% 0in /  0.00mm 0.00 W/m2 unknown
23:49 37.4 °F /  3.0 °C 28.4 °F /  -2.0 °C 30.4in /  1030.7hPa NE 2.5mph /  4km/h 5mph /  8km/h 69% 0in /  0.00mm 0.00 W/m2 unknown
23:54 37.4 °F /  3.0 °C 28.4 °F /  -2.0 °C 30.4in /  1030.7hPa NE 1.9mph /  3km/h 3.7mph /  6km/h 71% 0in /  0.00mm 0.00 W/m2 unknown
23:59 35.6 °F /  2.0 °C 28.4 °F /  -2.0 °C 30.4in /  1030.7hPa NE 3.1mph /  5km/h 3.7mph /  6km/h 72% 0in /  0.00mm 0.00 W/m2 unknown
Stazione Meteorologica MeteoMincio Rivalta s/M (MN)
Con i complimenti di Weather Underground - 4 mb



METEO PILLOLE
Temperatura più alta in Italia
Floridia - Siracusa
L' 11 agosto 2021 alle 13:14 si registrano ben 48,8°C.
Share

Non seguire questo link o sarai bannato dal sito!